sensor_id;sensor_type;location;lat;lon;timestamp;temperature;humidity
7445;DHT22;3764;48.126;11.594;2024-01-30T00:01:25;3.80;99.90
7445;DHT22;3764;48.126;11.594;2024-01-30T00:03:52;3.70;99.90
7445;DHT22;3764;48.126;11.594;2024-01-30T00:06:21;3.70;99.90
7445;DHT22;3764;48.126;11.594;2024-01-30T00:08:48;3.70;99.90
7445;DHT22;3764;48.126;11.594;2024-01-30T00:11:16;3.70;99.90
7445;DHT22;3764;48.126;11.594;2024-01-30T00:13:43;3.70;99.90
7445;DHT22;3764;48.126;11.594;2024-01-30T00:16:20;3.60;99.90
7445;DHT22;3764;48.126;11.594;2024-01-30T00:18:47;3.60;99.90
7445;DHT22;3764;48.126;11.594;2024-01-30T00:21:14;3.60;99.90
7445;DHT22;3764;48.126;11.594;2024-01-30T00:23:43;3.60;99.90
7445;DHT22;3764;48.126;11.594;2024-01-30T00:26:10;3.60;99.90
7445;DHT22;3764;48.126;11.594;2024-01-30T00:28:38;3.60;99.90
7445;DHT22;3764;48.126;11.594;2024-01-30T00:31:05;3.60;99.90
7445;DHT22;3764;48.126;11.594;2024-01-30T00:33:32;3.60;99.90
7445;DHT22;3764;48.126;11.594;2024-01-30T00:36:00;3.50;99.90
7445;DHT22;3764;48.126;11.594;2024-01-30T00:38:27;3.50;99.90
7445;DHT22;3764;48.126;11.594;2024-01-30T00:40:55;3.50;99.90
7445;DHT22;3764;48.126;11.594;2024-01-30T00:43:22;3.50;99.90
7445;DHT22;3764;48.126;11.594;2024-01-30T00:45:50;3.40;99.90
7445;DHT22;3764;48.126;11.594;2024-01-30T00:48:18;3.40;99.90
7445;DHT22;3764;48.126;11.594;2024-01-30T00:50:45;3.50;99.90
7445;DHT22;3764;48.126;11.594;2024-01-30T00:53:12;3.50;99.90
7445;DHT22;3764;48.126;11.594;2024-01-30T00:55:39;3.40;99.90
7445;DHT22;3764;48.126;11.594;2024-01-30T00:58:08;3.30;99.90
7445;DHT22;3764;48.126;11.594;2024-01-30T01:00:35;3.30;99.90
7445;DHT22;3764;48.126;11.594;2024-01-30T01:03:03;3.30;99.90
7445;DHT22;3764;48.126;11.594;2024-01-30T01:05:30;3.30;99.90
7445;DHT22;3764;48.126;11.594;2024-01-30T01:07:57;3.30;99.90
7445;DHT22;3764;48.126;11.594;2024-01-30T01:10:25;3.40;99.90
7445;DHT22;3764;48.126;11.594;2024-01-30T01:12:53;3.40;99.90
7445;DHT22;3764;48.126;11.594;2024-01-30T01:15:21;3.40;99.90
7445;DHT22;3764;48.126;11.594;2024-01-30T01:17:48;3.40;99.90
7445;DHT22;3764;48.126;11.594;2024-01-30T01:20:16;3.40;99.90
7445;DHT22;3764;48.126;11.594;2024-01-30T01:22:43;3.40;99.90
7445;DHT22;3764;48.126;11.594;2024-01-30T01:25:10;3.40;99.90
7445;DHT22;3764;48.126;11.594;2024-01-30T01:27:37;3.40;99.90
7445;DHT22;3764;48.126;11.594;2024-01-30T01:30:08;3.30;99.90
7445;DHT22;3764;48.126;11.594;2024-01-30T01:32:38;3.30;99.90
7445;DHT22;3764;48.126;11.594;2024-01-30T01:35:10;3.30;99.90
7445;DHT22;3764;48.126;11.594;2024-01-30T01:37:37;3.40;99.90
7445;DHT22;3764;48.126;11.594;2024-01-30T01:40:06;3.40;99.90
7445;DHT22;3764;48.126;11.594;2024-01-30T01:42:33;3.40;99.90
7445;DHT22;3764;48.126;11.594;2024-01-30T01:45:01;3.40;99.90
7445;DHT22;3764;48.126;11.594;2024-01-30T01:47:29;3.30;99.90
7445;DHT22;3764;48.126;11.594;2024-01-30T01:49:57;3.40;99.90
7445;DHT22;3764;48.126;11.594;2024-01-30T01:52:25;3.40;99.90
7445;DHT22;3764;48.126;11.594;2024-01-30T01:54:53;3.30;99.90
7445;DHT22;3764;48.126;11.594;2024-01-30T01:57:20;3.30;99.90
7445;DHT22;3764;48.126;11.594;2024-01-30T01:59:47;3.30;99.90
7445;DHT22;3764;48.126;11.594;2024-01-30T02:02:17;3.30;99.90
7445;DHT22;3764;48.126;11.594;2024-01-30T02:04:46;3.30;99.90
7445;DHT22;3764;48.126;11.594;2024-01-30T02:07:14;3.30;99.90
7445;DHT22;3764;48.126;11.594;2024-01-30T02:09:42;3.30;99.90
7445;DHT22;3764;48.126;11.594;2024-01-30T02:12:09;3.20;99.90
7445;DHT22;3764;48.126;11.594;2024-01-30T02:14:44;3.20;99.90
7445;DHT22;3764;48.126;11.594;2024-01-30T02:17:12;3.20;99.90
7445;DHT22;3764;48.126;11.594;2024-01-30T02:19:39;3.20;99.90
7445;DHT22;3764;48.126;11.594;2024-01-30T02:22:07;3.20;99.90
7445;DHT22;3764;48.126;11.594;2024-01-30T02:24:35;3.20;99.90
7445;DHT22;3764;48.126;11.594;2024-01-30T02:27:02;3.10;99.90
7445;DHT22;3764;48.126;11.594;2024-01-30T02:29:29;3.00;99.90
7445;DHT22;3764;48.126;11.594;2024-01-30T02:31:56;3.10;99.90
7445;DHT22;3764;48.126;11.594;2024-01-30T02:34:24;3.10;99.90
7445;DHT22;3764;48.126;11.594;2024-01-30T02:36:51;3.10;99.90
7445;DHT22;3764;48.126;11.594;2024-01-30T02:39:19;3.20;99.90
7445;DHT22;3764;48.126;11.594;2024-01-30T02:41:47;3.10;99.90
7445;DHT22;3764;48.126;11.594;2024-01-30T02:44:14;3.20;99.90
7445;DHT22;3764;48.126;11.594;2024-01-30T02:46:41;3.20;99.90
7445;DHT22;3764;48.126;11.594;2024-01-30T02:49:08;3.20;99.90
7445;DHT22;3764;48.126;11.594;2024-01-30T02:51:36;3.10;99.90
7445;DHT22;3764;48.126;11.594;2024-01-30T02:54:03;3.00;99.90
7445;DHT22;3764;48.126;11.594;2024-01-30T02:56:31;2.70;99.90
7445;DHT22;3764;48.126;11.594;2024-01-30T02:58:59;2.50;99.90
7445;DHT22;3764;48.126;11.594;2024-01-30T03:01:26;2.40;99.90
7445;DHT22;3764;48.126;11.594;2024-01-30T03:03:53;2.40;99.90
7445;DHT22;3764;48.126;11.594;2024-01-30T03:06:20;2.40;99.90
7445;DHT22;3764;48.126;11.594;2024-01-30T03:08:48;2.40;99.90
7445;DHT22;3764;48.126;11.594;2024-01-30T03:11:16;2.30;99.90
7445;DHT22;3764;48.126;11.594;2024-01-30T03:13:44;2.20;99.90
7445;DHT22;3764;48.126;11.594;2024-01-30T03:16:11;2.10;99.90
7445;DHT22;3764;48.126;11.594;2024-01-30T03:18:38;2.00;99.90
7445;DHT22;3764;48.126;11.594;2024-01-30T03:21:06;1.90;99.90
7445;DHT22;3764;48.126;11.594;2024-01-30T03:23:33;2.00;99.90
7445;DHT22;3764;48.126;11.594;2024-01-30T03:26:00;2.10;99.90
7445;DHT22;3764;48.126;11.594;2024-01-30T03:28:29;2.20;99.90
7445;DHT22;3764;48.126;11.594;2024-01-30T03:30:58;2.30;99.90
7445;DHT22;3764;48.126;11.594;2024-01-30T03:33:26;2.40;99.90
7445;DHT22;3764;48.126;11.594;2024-01-30T03:35:54;2.40;99.90
7445;DHT22;3764;48.126;11.594;2024-01-30T03:38:21;2.50;99.90
7445;DHT22;3764;48.126;11.594;2024-01-30T03:40:48;2.50;99.90
7445;DHT22;3764;48.126;11.594;2024-01-30T03:43:15;2.60;99.90
7445;DHT22;3764;48.126;11.594;2024-01-30T03:45:42;2.70;99.90
7445;DHT22;3764;48.126;11.594;2024-01-30T03:48:11;2.70;99.90
7445;DHT22;3764;48.126;11.594;2024-01-30T03:50:38;2.70;99.90
7445;DHT22;3764;48.126;11.594;2024-01-30T03:53:05;2.70;99.90
7445;DHT22;3764;48.126;11.594;2024-01-30T03:55:32;2.70;99.90
7445;DHT22;3764;48.126;11.594;2024-01-30T03:58:00;2.80;99.90
7445;DHT22;3764;48.126;11.594;2024-01-30T04:00:27;2.80;99.90
7445;DHT22;3764;48.126;11.594;2024-01-30T04:02:54;2.80;99.90
7445;DHT22;3764;48.126;11.594;2024-01-30T04:05:23;2.80;99.90
7445;DHT22;3764;48.126;11.594;2024-01-30T04:07:50;2.80;99.90
7445;DHT22;3764;48.126;11.594;2024-01-30T04:10:17;2.80;99.90
7445;DHT22;3764;48.126;11.594;2024-01-30T04:12:45;2.90;99.90
7445;DHT22;3764;48.126;11.594;2024-01-30T04:15:13;2.90;99.90
7445;DHT22;3764;48.126;11.594;2024-01-30T04:17:43;2.90;99.90
7445;DHT22;3764;48.126;11.594;2024-01-30T04:20:14;2.90;99.90
7445;DHT22;3764;48.126;11.594;2024-01-30T04:22:44;2.80;99.90
7445;DHT22;3764;48.126;11.594;2024-01-30T04:25:11;2.70;99.90
7445;DHT22;3764;48.126;11.594;2024-01-30T04:27:38;2.70;99.90
7445;DHT22;3764;48.126;11.594;2024-01-30T04:30:07;2.70;99.90
7445;DHT22;3764;48.126;11.594;2024-01-30T04:32:35;2.70;99.90
7445;DHT22;3764;48.126;11.594;2024-01-30T04:35:03;2.70;99.90
7445;DHT22;3764;48.126;11.594;2024-01-30T04:37:30;2.70;99.90
7445;DHT22;3764;48.126;11.594;2024-01-30T04:39:59;2.80;99.90
7445;DHT22;3764;48.126;11.594;2024-01-30T04:42:26;2.70;99.90
7445;DHT22;3764;48.126;11.594;2024-01-30T04:44:53;2.80;99.90
7445;DHT22;3764;48.126;11.594;2024-01-30T04:47:21;2.80;99.90
7445;DHT22;3764;48.126;11.594;2024-01-30T04:49:48;2.80;99.90
7445;DHT22;3764;48.126;11.594;2024-01-30T04:52:16;2.80;99.90
7445;DHT22;3764;48.126;11.594;2024-01-30T04:54:43;2.80;99.90
7445;DHT22;3764;48.126;11.594;2024-01-30T04:57:12;2.80;99.90
7445;DHT22;3764;48.126;11.594;2024-01-30T04:59:39;2.90;99.90
7445;DHT22;3764;48.126;11.594;2024-01-30T05:02:06;2.80;99.90
7445;DHT22;3764;48.126;11.594;2024-01-30T05:04:34;2.80;99.90
7445;DHT22;3764;48.126;11.594;2024-01-30T05:07:01;2.80;99.90
7445;DHT22;3764;48.126;11.594;2024-01-30T05:09:28;2.90;99.90
7445;DHT22;3764;48.126;11.594;2024-01-30T05:11:55;2.80;99.90
7445;DHT22;3764;48.126;11.594;2024-01-30T05:14:24;2.80;99.90
7445;DHT22;3764;48.126;11.594;2024-01-30T05:16:52;2.90;99.90
7445;DHT22;3764;48.126;11.594;2024-01-30T05:19:19;2.90;99.90
7445;DHT22;3764;48.126;11.594;2024-01-30T05:21:48;2.90;99.90
7445;DHT22;3764;48.126;11.594;2024-01-30T05:24:15;2.90;99.90
7445;DHT22;3764;48.126;11.594;2024-01-30T05:26:43;2.90;99.90
7445;DHT22;3764;48.126;11.594;2024-01-30T05:29:10;2.80;99.90
7445;DHT22;3764;48.126;11.594;2024-01-30T05:31:38;2.80;99.90
7445;DHT22;3764;48.126;11.594;2024-01-30T05:34:06;2.80;99.90
7445;DHT22;3764;48.126;11.594;2024-01-30T05:36:34;2.70;99.90
7445;DHT22;3764;48.126;11.594;2024-01-30T05:39:02;2.80;99.90
7445;DHT22;3764;48.126;11.594;2024-01-30T05:41:29;2.80;99.90
7445;DHT22;3764;48.126;11.594;2024-01-30T05:43:56;2.80;99.90
7445;DHT22;3764;48.126;11.594;2024-01-30T05:46:24;2.80;99.90
7445;DHT22;3764;48.126;11.594;2024-01-30T05:48:52;2.80;99.90
7445;DHT22;3764;48.126;11.594;2024-01-30T05:51:19;2.80;99.90
7445;DHT22;3764;48.126;11.594;2024-01-30T05:53:47;2.80;99.90
7445;DHT22;3764;48.126;11.594;2024-01-30T05:56:14;2.80;99.90
7445;DHT22;3764;48.126;11.594;2024-01-30T05:58:41;2.80;99.90
7445;DHT22;3764;48.126;11.594;2024-01-30T06:01:09;2.80;99.90
7445;DHT22;3764;48.126;11.594;2024-01-30T06:03:37;2.80;99.90
7445;DHT22;3764;48.126;11.594;2024-01-30T06:06:06;2.80;99.90
7445;DHT22;3764;48.126;11.594;2024-01-30T06:08:33;2.80;99.90
7445;DHT22;3764;48.126;11.594;2024-01-30T06:11:00;2.80;99.90
7445;DHT22;3764;48.126;11.594;2024-01-30T06:13:28;2.80;99.90
7445;DHT22;3764;48.126;11.594;2024-01-30T06:15:57;2.80;99.90
7445;DHT22;3764;48.126;11.594;2024-01-30T06:18:24;2.80;99.90
7445;DHT22;3764;48.126;11.594;2024-01-30T06:20:52;2.80;99.90
7445;DHT22;3764;48.126;11.594;2024-01-30T06:23:21;2.80;99.90
7445;DHT22;3764;48.126;11.594;2024-01-30T06:25:48;2.80;99.90
7445;DHT22;3764;48.126;11.594;2024-01-30T06:28:15;2.80;99.90
7445;DHT22;3764;48.126;11.594;2024-01-30T06:30:43;2.70;99.90
7445;DHT22;3764;48.126;11.594;2024-01-30T06:33:12;2.70;99.90
7445;DHT22;3764;48.126;11.594;2024-01-30T06:35:40;2.70;99.90
7445;DHT22;3764;48.126;11.594;2024-01-30T06:38:07;2.70;99.90
7445;DHT22;3764;48.126;11.594;2024-01-30T06:40:36;2.70;99.90
7445;DHT22;3764;48.126;11.594;2024-01-30T06:43:05;2.70;99.90
7445;DHT22;3764;48.126;11.594;2024-01-30T06:45:33;2.70;99.90
7445;DHT22;3764;48.126;11.594;2024-01-30T06:48:01;2.70;99.90
7445;DHT22;3764;48.126;11.594;2024-01-30T06:50:28;2.70;99.90
7445;DHT22;3764;48.126;11.594;2024-01-30T06:52:55;2.70;99.90
7445;DHT22;3764;48.126;11.594;2024-01-30T06:55:22;2.70;99.90
7445;DHT22;3764;48.126;11.594;2024-01-30T06:57:51;2.70;99.90
7445;DHT22;3764;48.126;11.594;2024-01-30T07:00:19;2.70;99.90
7445;DHT22;3764;48.126;11.594;2024-01-30T07:02:47;2.70;99.90
7445;DHT22;3764;48.126;11.594;2024-01-30T07:05:14;2.70;99.90
7445;DHT22;3764;48.126;11.594;2024-01-30T07:07:43;2.70;99.90
7445;DHT22;3764;48.126;11.594;2024-01-30T07:10:10;2.70;99.90
7445;DHT22;3764;48.126;11.594;2024-01-30T07:12:37;2.70;99.90
7445;DHT22;3764;48.126;11.594;2024-01-30T07:15:06;2.80;99.90
7445;DHT22;3764;48.126;11.594;2024-01-30T07:17:35;2.80;99.90
7445;DHT22;3764;48.126;11.594;2024-01-30T07:20:03;2.80;99.90
7445;DHT22;3764;48.126;11.594;2024-01-30T07:22:31;2.80;99.90
7445;DHT22;3764;48.126;11.594;2024-01-30T07:24:59;2.80;99.90
7445;DHT22;3764;48.126;11.594;2024-01-30T07:27:26;2.80;99.90
7445;DHT22;3764;48.126;11.594;2024-01-30T07:29:53;2.80;99.90
7445;DHT22;3764;48.126;11.594;2024-01-30T07:32:22;2.80;99.90
7445;DHT22;3764;48.126;11.594;2024-01-30T07:34:49;2.80;99.90
7445;DHT22;3764;48.126;11.594;2024-01-30T07:37:16;2.80;99.90
7445;DHT22;3764;48.126;11.594;2024-01-30T07:39:43;2.80;99.90
7445;DHT22;3764;48.126;11.594;2024-01-30T07:42:11;2.80;99.90
7445;DHT22;3764;48.126;11.594;2024-01-30T07:44:38;2.90;99.90
7445;DHT22;3764;48.126;11.594;2024-01-30T07:47:05;2.90;99.90
7445;DHT22;3764;48.126;11.594;2024-01-30T07:49:34;2.80;99.90
7445;DHT22;3764;48.126;11.594;2024-01-30T07:52:04;2.80;99.90
7445;DHT22;3764;48.126;11.594;2024-01-30T07:54:32;2.80;99.90
7445;DHT22;3764;48.126;11.594;2024-01-30T07:57:00;2.80;99.90
7445;DHT22;3764;48.126;11.594;2024-01-30T07:59:28;2.80;99.90
7445;DHT22;3764;48.126;11.594;2024-01-30T08:01:55;2.90;99.90
7445;DHT22;3764;48.126;11.594;2024-01-30T08:04:22;2.90;99.90
7445;DHT22;3764;48.126;11.594;2024-01-30T08:06:50;2.90;99.90
7445;DHT22;3764;48.126;11.594;2024-01-30T08:09:18;2.90;99.90
7445;DHT22;3764;48.126;11.594;2024-01-30T08:11:45;3.00;99.90
7445;DHT22;3764;48.126;11.594;2024-01-30T08:14:12;3.00;99.90
7445;DHT22;3764;48.126;11.594;2024-01-30T08:16:40;3.00;99.90
7445;DHT22;3764;48.126;11.594;2024-01-30T08:19:07;3.00;99.90
7445;DHT22;3764;48.126;11.594;2024-01-30T08:21:34;3.10;99.90
7445;DHT22;3764;48.126;11.594;2024-01-30T08:24:05;3.10;99.90
7445;DHT22;3764;48.126;11.594;2024-01-30T08:26:32;3.10;99.90
7445;DHT22;3764;48.126;11.594;2024-01-30T08:29:00;3.10;99.90
7445;DHT22;3764;48.126;11.594;2024-01-30T08:31:28;3.10;99.90
7445;DHT22;3764;48.126;11.594;2024-01-30T08:33:55;3.10;99.90
7445;DHT22;3764;48.126;11.594;2024-01-30T08:36:23;3.10;99.90
7445;DHT22;3764;48.126;11.594;2024-01-30T08:38:50;3.10;99.90
7445;DHT22;3764;48.126;11.594;2024-01-30T08:41:18;3.10;99.90
7445;DHT22;3764;48.126;11.594;2024-01-30T08:43:45;3.10;99.90
7445;DHT22;3764;48.126;11.594;2024-01-30T08:46:13;3.10;99.90
7445;DHT22;3764;48.126;11.594;2024-01-30T08:48:41;3.20;99.90
7445;DHT22;3764;48.126;11.594;2024-01-30T08:51:08;3.20;99.90
7445;DHT22;3764;48.126;11.594;2024-01-30T08:53:35;3.20;99.90
7445;DHT22;3764;48.126;11.594;2024-01-30T08:56:03;3.20;99.90
7445;DHT22;3764;48.126;11.594;2024-01-30T08:58:32;3.30;99.90
7445;DHT22;3764;48.126;11.594;2024-01-30T09:00:59;3.30;99.90
7445;DHT22;3764;48.126;11.594;2024-01-30T09:03:26;3.30;99.90
7445;DHT22;3764;48.126;11.594;2024-01-30T09:05:53;3.30;99.90
7445;DHT22;3764;48.126;11.594;2024-01-30T09:08:19;3.30;99.90
7445;DHT22;3764;48.126;11.594;2024-01-30T09:10:46;3.40;99.90
7445;DHT22;3764;48.126;11.594;2024-01-30T09:13:14;3.40;99.90
7445;DHT22;3764;48.126;11.594;2024-01-30T09:15:42;3.40;99.90
7445;DHT22;3764;48.126;11.594;2024-01-30T09:18:09;3.40;99.90
7445;DHT22;3764;48.126;11.594;2024-01-30T09:20:37;3.40;99.90
7445;DHT22;3764;48.126;11.594;2024-01-30T09:23:04;3.50;99.90
7445;DHT22;3764;48.126;11.594;2024-01-30T09:25:31;3.50;99.90
7445;DHT22;3764;48.126;11.594;2024-01-30T09:27:59;3.60;99.90
7445;DHT22;3764;48.126;11.594;2024-01-30T09:30:26;3.60;99.90
7445;DHT22;3764;48.126;11.594;2024-01-30T09:32:55;3.60;99.90
7445;DHT22;3764;48.126;11.594;2024-01-30T09:35:22;3.60;99.90
7445;DHT22;3764;48.126;11.594;2024-01-30T09:37:49;3.70;99.90
7445;DHT22;3764;48.126;11.594;2024-01-30T09:40:17;3.70;99.90
7445;DHT22;3764;48.126;11.594;2024-01-30T09:42:47;3.70;99.90
7445;DHT22;3764;48.126;11.594;2024-01-30T09:45:17;3.70;99.90
7445;DHT22;3764;48.126;11.594;2024-01-30T09:47:45;3.80;99.90
7445;DHT22;3764;48.126;11.594;2024-01-30T09:50:15;3.80;99.90
7445;DHT22;3764;48.126;11.594;2024-01-30T09:52:43;3.80;99.90
7445;DHT22;3764;48.126;11.594;2024-01-30T09:55:11;3.90;99.90
7445;DHT22;3764;48.126;11.594;2024-01-30T09:57:38;3.90;99.90
7445;DHT22;3764;48.126;11.594;2024-01-30T10:00:07;3.90;99.90
7445;DHT22;3764;48.126;11.594;2024-01-30T10:02:34;4.00;99.90
7445;DHT22;3764;48.126;11.594;2024-01-30T10:05:02;4.00;99.90
7445;DHT22;3764;48.126;11.594;2024-01-30T10:07:31;4.00;99.90
7445;DHT22;3764;48.126;11.594;2024-01-30T10:09:58;4.10;99.90
7445;DHT22;3764;48.126;11.594;2024-01-30T10:12:27;4.10;99.90
7445;DHT22;3764;48.126;11.594;2024-01-30T10:14:56;4.10;99.90
7445;DHT22;3764;48.126;11.594;2024-01-30T10:17:25;4.20;99.90
7445;DHT22;3764;48.126;11.594;2024-01-30T10:19:52;4.20;99.90
7445;DHT22;3764;48.126;11.594;2024-01-30T10:22:20;4.20;99.90
7445;DHT22;3764;48.126;11.594;2024-01-30T10:24:48;4.30;99.90
7445;DHT22;3764;48.126;11.594;2024-01-30T10:27:16;4.30;99.90
7445;DHT22;3764;48.126;11.594;2024-01-30T10:29:43;4.40;99.90
7445;DHT22;3764;48.126;11.594;2024-01-30T10:32:10;4.40;99.90
7445;DHT22;3764;48.126;11.594;2024-01-30T10:34:37;4.40;99.90
7445;DHT22;3764;48.126;11.594;2024-01-30T10:37:08;4.50;99.90
7445;DHT22;3764;48.126;11.594;2024-01-30T10:39:39;4.50;99.90
7445;DHT22;3764;48.126;11.594;2024-01-30T10:42:11;4.60;99.90
7445;DHT22;3764;48.126;11.594;2024-01-30T10:44:44;4.60;99.90
7445;DHT22;3764;48.126;11.594;2024-01-30T10:47:12;4.60;99.90
7445;DHT22;3764;48.126;11.594;2024-01-30T10:49:42;4.70;99.90
7445;DHT22;3764;48.126;11.594;2024-01-30T10:52:09;4.70;99.90
7445;DHT22;3764;48.126;11.594;2024-01-30T10:54:40;4.80;99.90
7445;DHT22;3764;48.126;11.594;2024-01-30T10:57:11;4.80;99.90
7445;DHT22;3764;48.126;11.594;2024-01-30T10:59:39;4.80;99.90
7445;DHT22;3764;48.126;11.594;2024-01-30T11:02:06;4.90;99.90
7445;DHT22;3764;48.126;11.594;2024-01-30T11:04:37;5.00;99.90
7445;DHT22;3764;48.126;11.594;2024-01-30T11:07:14;5.00;99.90
7445;DHT22;3764;48.126;11.594;2024-01-30T11:09:49;5.10;99.90
7445;DHT22;3764;48.126;11.594;2024-01-30T11:12:22;5.10;99.90
7445;DHT22;3764;48.126;11.594;2024-01-30T11:14:50;5.20;99.90
7445;DHT22;3764;48.126;11.594;2024-01-30T11:17:29;5.20;99.90
7445;DHT22;3764;48.126;11.594;2024-01-30T11:20:10;5.30;99.90
7445;DHT22;3764;48.126;11.594;2024-01-30T11:22:37;5.50;99.90
7445;DHT22;3764;48.126;11.594;2024-01-30T11:25:04;5.50;99.90
7445;DHT22;3764;48.126;11.594;2024-01-30T11:27:34;5.70;99.90
7445;DHT22;3764;48.126;11.594;2024-01-30T11:30:02;5.80;99.90
7445;DHT22;3764;48.126;11.594;2024-01-30T11:32:29;5.90;99.90
7445;DHT22;3764;48.126;11.594;2024-01-30T11:34:56;6.00;99.90
7445;DHT22;3764;48.126;11.594;2024-01-30T11:37:25;6.10;99.90
7445;DHT22;3764;48.126;11.594;2024-01-30T11:39:54;6.30;99.90
7445;DHT22;3764;48.126;11.594;2024-01-30T11:42:23;6.50;99.90
7445;DHT22;3764;48.126;11.594;2024-01-30T11:44:53;6.70;99.90
7445;DHT22;3764;48.126;11.594;2024-01-30T11:47:20;6.80;99.90
7445;DHT22;3764;48.126;11.594;2024-01-30T11:49:47;7.00;99.90
7445;DHT22;3764;48.126;11.594;2024-01-30T11:52:14;7.20;99.90
7445;DHT22;3764;48.126;11.594;2024-01-30T11:54:43;7.40;99.90
7445;DHT22;3764;48.126;11.594;2024-01-30T11:57:10;7.50;99.90
7445;DHT22;3764;48.126;11.594;2024-01-30T11:59:37;7.60;99.90
7445;DHT22;3764;48.126;11.594;2024-01-30T12:02:06;7.70;99.90
7445;DHT22;3764;48.126;11.594;2024-01-30T12:04:33;7.80;99.90
7445;DHT22;3764;48.126;11.594;2024-01-30T12:07:00;7.80;99.90
7445;DHT22;3764;48.126;11.594;2024-01-30T12:09:28;7.90;99.90
7445;DHT22;3764;48.126;11.594;2024-01-30T12:11:56;8.10;99.90
7445;DHT22;3764;48.126;11.594;2024-01-30T12:14:23;8.20;99.90
7445;DHT22;3764;48.126;11.594;2024-01-30T12:16:51;8.30;99.90
7445;DHT22;3764;48.126;11.594;2024-01-30T12:19:23;8.40;99.90
7445;DHT22;3764;48.126;11.594;2024-01-30T12:21:54;8.50;99.90
7445;DHT22;3764;48.126;11.594;2024-01-30T12:24:22;8.70;99.90
7445;DHT22;3764;48.126;11.594;2024-01-30T12:26:50;8.80;99.90
7445;DHT22;3764;48.126;11.594;2024-01-30T12:29:20;8.90;99.90
7445;DHT22;3764;48.126;11.594;2024-01-30T12:31:47;9.00;99.90
7445;DHT22;3764;48.126;11.594;2024-01-30T12:34:15;9.00;99.90
7445;DHT22;3764;48.126;11.594;2024-01-30T12:36:44;9.00;99.90
7445;DHT22;3764;48.126;11.594;2024-01-30T12:39:12;9.00;99.90
7445;DHT22;3764;48.126;11.594;2024-01-30T12:41:40;9.10;99.90
7445;DHT22;3764;48.126;11.594;2024-01-30T12:44:08;9.10;99.90
7445;DHT22;3764;48.126;11.594;2024-01-30T12:46:35;9.10;99.90
7445;DHT22;3764;48.126;11.594;2024-01-30T12:49:02;9.20;99.90
7445;DHT22;3764;48.126;11.594;2024-01-30T12:51:29;9.10;99.90
7445;DHT22;3764;48.126;11.594;2024-01-30T12:53:58;9.20;99.90
7445;DHT22;3764;48.126;11.594;2024-01-30T12:56:25;9.20;99.90
7445;DHT22;3764;48.126;11.594;2024-01-30T12:58:53;9.10;99.90
7445;DHT22;3764;48.126;11.594;2024-01-30T13:01:20;9.10;99.90
7445;DHT22;3764;48.126;11.594;2024-01-30T13:03:47;9.10;99.90
7445;DHT22;3764;48.126;11.594;2024-01-30T13:06:14;9.10;99.90
7445;DHT22;3764;48.126;11.594;2024-01-30T13:08:42;9.10;99.90
7445;DHT22;3764;48.126;11.594;2024-01-30T13:11:10;9.10;99.90
7445;DHT22;3764;48.126;11.594;2024-01-30T13:13:38;9.10;99.90
7445;DHT22;3764;48.126;11.594;2024-01-30T13:16:06;9.10;99.90
7445;DHT22;3764;48.126;11.594;2024-01-30T13:18:33;9.10;99.90
7445;DHT22;3764;48.126;11.594;2024-01-30T13:21:00;9.20;99.90
7445;DHT22;3764;48.126;11.594;2024-01-30T13:23:28;9.20;99.90
7445;DHT22;3764;48.126;11.594;2024-01-30T13:25:55;9.20;99.90
7445;DHT22;3764;48.126;11.594;2024-01-30T13:28:25;9.30;99.90
7445;DHT22;3764;48.126;11.594;2024-01-30T13:30:53;9.30;99.90
7445;DHT22;3764;48.126;11.594;2024-01-30T13:33:20;9.30;99.90
7445;DHT22;3764;48.126;11.594;2024-01-30T13:35:47;9.40;98.60
7445;DHT22;3764;48.126;11.594;2024-01-30T13:38:15;9.50;98.70
7445;DHT22;3764;48.126;11.594;2024-01-30T13:40:42;9.50;98.80
7445;DHT22;3764;48.126;11.594;2024-01-30T13:43:09;9.50;99.10
7445;DHT22;3764;48.126;11.594;2024-01-30T13:45:37;9.50;99.20
7445;DHT22;3764;48.126;11.594;2024-01-30T13:48:05;9.50;98.20
7445;DHT22;3764;48.126;11.594;2024-01-30T13:50:33;9.60;97.70
7445;DHT22;3764;48.126;11.594;2024-01-30T13:53:02;9.70;95.00
7445;DHT22;3764;48.126;11.594;2024-01-30T13:55:29;9.70;96.30
7445;DHT22;3764;48.126;11.594;2024-01-30T13:57:56;9.80;96.20
7445;DHT22;3764;48.126;11.594;2024-01-30T14:00:23;9.80;95.70
7445;DHT22;3764;48.126;11.594;2024-01-30T14:02:53;9.90;95.90
7445;DHT22;3764;48.126;11.594;2024-01-30T14:05:21;9.90;95.80
7445;DHT22;3764;48.126;11.594;2024-01-30T14:07:48;9.90;96.20
7445;DHT22;3764;48.126;11.594;2024-01-30T14:10:16;9.90;96.40
7445;DHT22;3764;48.126;11.594;2024-01-30T14:12:44;9.80;96.70
7445;DHT22;3764;48.126;11.594;2024-01-30T14:15:11;9.80;96.90
7445;DHT22;3764;48.126;11.594;2024-01-30T14:17:39;9.80;96.70
7445;DHT22;3764;48.126;11.594;2024-01-30T14:20:08;9.70;96.90
7445;DHT22;3764;48.126;11.594;2024-01-30T14:22:36;9.70;96.60
7445;DHT22;3764;48.126;11.594;2024-01-30T14:25:04;9.70;96.80
7445;DHT22;3764;48.126;11.594;2024-01-30T14:27:32;9.70;96.60
7445;DHT22;3764;48.126;11.594;2024-01-30T14:29:59;9.70;96.70
7445;DHT22;3764;48.126;11.594;2024-01-30T14:32:26;9.70;96.80
7445;DHT22;3764;48.126;11.594;2024-01-30T14:34:53;9.70;97.00
7445;DHT22;3764;48.126;11.594;2024-01-30T14:37:22;9.70;97.00
7445;DHT22;3764;48.126;11.594;2024-01-30T14:39:49;9.80;96.50
7445;DHT22;3764;48.126;11.594;2024-01-30T14:42:16;9.90;96.50
7445;DHT22;3764;48.126;11.594;2024-01-30T14:44:44;10.00;96.00
7445;DHT22;3764;48.126;11.594;2024-01-30T14:47:11;10.00;96.10
7445;DHT22;3764;48.126;11.594;2024-01-30T14:49:39;10.00;96.20
7445;DHT22;3764;48.126;11.594;2024-01-30T14:52:06;10.00;96.50
7445;DHT22;3764;48.126;11.594;2024-01-30T14:54:36;10.00;96.30
7445;DHT22;3764;48.126;11.594;2024-01-30T14:57:04;10.00;96.30
7445;DHT22;3764;48.126;11.594;2024-01-30T14:59:31;10.00;96.40
7445;DHT22;3764;48.126;11.594;2024-01-30T15:02:00;10.00;96.60
7445;DHT22;3764;48.126;11.594;2024-01-30T15:04:27;10.00;96.90
7445;DHT22;3764;48.126;11.594;2024-01-30T15:06:54;9.90;97.50
7445;DHT22;3764;48.126;11.594;2024-01-30T15:09:21;9.90;97.70
7445;DHT22;3764;48.126;11.594;2024-01-30T15:11:50;9.90;97.50
7445;DHT22;3764;48.126;11.594;2024-01-30T15:14:17;9.90;97.70
7445;DHT22;3764;48.126;11.594;2024-01-30T15:16:44;9.80;97.70
7445;DHT22;3764;48.126;11.594;2024-01-30T15:19:11;9.80;97.60
7445;DHT22;3764;48.126;11.594;2024-01-30T15:21:39;9.80;97.60
7445;DHT22;3764;48.126;11.594;2024-01-30T15:24:06;9.70;97.60
7445;DHT22;3764;48.126;11.594;2024-01-30T15:26:34;9.70;97.90
7445;DHT22;3764;48.126;11.594;2024-01-30T15:29:02;9.70;98.20
7445;DHT22;3764;48.126;11.594;2024-01-30T15:31:30;9.70;98.20
7445;DHT22;3764;48.126;11.594;2024-01-30T15:33:58;9.60;98.40
7445;DHT22;3764;48.126;11.594;2024-01-30T15:36:25;9.60;98.50
7445;DHT22;3764;48.126;11.594;2024-01-30T15:38:52;9.50;98.80
7445;DHT22;3764;48.126;11.594;2024-01-30T15:41:19;9.50;98.80
7445;DHT22;3764;48.126;11.594;2024-01-30T15:43:47;9.40;98.90
7445;DHT22;3764;48.126;11.594;2024-01-30T15:46:15;9.40;99.10
7445;DHT22;3764;48.126;11.594;2024-01-30T15:48:42;9.30;99.20
7445;DHT22;3764;48.126;11.594;2024-01-30T15:51:10;9.30;99.30
7445;DHT22;3764;48.126;11.594;2024-01-30T15:53:37;9.20;99.40
7445;DHT22;3764;48.126;11.594;2024-01-30T15:56:05;9.20;99.60
7445;DHT22;3764;48.126;11.594;2024-01-30T15:58:32;9.10;99.70
7445;DHT22;3764;48.126;11.594;2024-01-30T16:00:59;9.10;99.80
7445;DHT22;3764;48.126;11.594;2024-01-30T16:03:29;9.00;99.90
7445;DHT22;3764;48.126;11.594;2024-01-30T16:05:56;9.00;99.90